ETD7QB LLBG-OMAA
Flight info
| Callsign | ETD7QB |
|---|---|
| Flight time | N/A |
| Altitude | 39000 |
| Route | SALAM N134 OSAMA DCT EGLOT R652 KULDI N318 TAMRO T503 KSA M321 RESAL T533 RAPMA Y214 KUVSO/N0417F290 Y214 RIBOT/N0430F310 M550 GOLGU Q725 UKRAG G783 VAVIM P899 ROVOS ROVOS6C |
| Aircraft | B789/H-VGDW/C |
Departure
| Time | N/A |
|---|---|
| Airport | Ben Gurion International Airport (LLBG) |
Arrival
| Time | 2026-04-30 19:16 |
|---|---|
| Airport | Zayed International Airport (OMAA) |
| Time | Latitude | Longitude | Altitude | Speed | Heading |
|---|---|---|---|---|---|
| 2026-04-30 17:39 | 26.90653 | 44.66279 | 38971 ft | 525 kts | 145° |
| 2026-04-30 17:42 | 26.64131 | 44.94387 | 38970 ft | 526 kts | 145° |
| 2026-04-30 17:43 | 26.50855 | 45.08392 | 38974 ft | 525 kts | 145° |
| 2026-04-30 17:44 | 26.34882 | 45.25171 | 38975 ft | 526 kts | 145° |
| 2026-04-30 17:47 | 26.11801 | 45.49386 | 38979 ft | 527 kts | 145° |
| 2026-04-30 17:48 | 25.93134 | 45.68890 | 38975 ft | 527 kts | 145° |
| 2026-04-30 17:50 | 25.71726 | 45.91147 | 38991 ft | 527 kts | 145° |
| 2026-04-30 17:52 | 25.55694 | 46.07741 | 38992 ft | 524 kts | 145° |
| 2026-04-30 17:54 | 25.31760 | 46.32385 | 38987 ft | 519 kts | 144° |
| 2026-04-30 17:56 | 25.10638 | 46.54019 | 38996 ft | 516 kts | 144° |
| 2026-04-30 17:58 | 24.93907 | 46.68119 | 39000 ft | 497 kts | 159° |
| 2026-04-30 18:00 | 24.68968 | 46.80494 | 38989 ft | 490 kts | 164° |
| 2026-04-30 18:01 | 24.53287 | 46.87847 | 38985 ft | 490 kts | 164° |
| 2026-04-30 18:02 | 24.34518 | 46.96623 | 38984 ft | 489 kts | 163° |
| 2026-04-30 18:04 | 24.15747 | 47.05392 | 38979 ft | 491 kts | 161° |
| 2026-04-30 18:05 | 24.06077 | 47.16430 | 39022 ft | 523 kts | 126° |
| 2026-04-30 18:06 | 23.98636 | 47.30087 | 38967 ft | 520 kts | 127° |
| 2026-04-30 18:08 | 23.85201 | 47.53389 | 38959 ft | 518 kts | 127° |
| 2026-04-30 18:10 | 23.69802 | 47.79994 | 38967 ft | 518 kts | 127° |
| 2026-04-30 18:11 | 23.56317 | 48.03169 | 38957 ft | 516 kts | 127° |
| 2026-04-30 18:13 | 23.46687 | 48.19657 | 38957 ft | 515 kts | 127° |
| 2026-04-30 18:14 | 23.39365 | 48.37388 | 38988 ft | 526 kts | 103° |
| 2026-04-30 18:15 | 23.37257 | 48.61245 | 38968 ft | 527 kts | 94° |
| 2026-04-30 18:16 | 23.36558 | 48.77183 | 38960 ft | 527 kts | 95° |
| 2026-04-30 18:17 | 23.36190 | 48.85141 | 38966 ft | 526 kts | 95° |
| 2026-04-30 18:18 | 23.35638 | 48.97055 | 38958 ft | 526 kts | 95° |
| 2026-04-30 18:18 | 23.35264 | 49.05004 | 38966 ft | 526 kts | 95° |
| 2026-04-30 18:19 | 23.34907 | 49.12944 | 38953 ft | 525 kts | 95° |
| 2026-04-30 18:19 | 23.34556 | 49.20882 | 38963 ft | 525 kts | 95° |
| 2026-04-30 18:20 | 23.34199 | 49.28823 | 38964 ft | 526 kts | 95° |
| 2026-04-30 18:20 | 23.33835 | 49.36762 | 38952 ft | 525 kts | 95° |
| 2026-04-30 18:21 | 23.33464 | 49.44704 | 38965 ft | 526 kts | 95° |
| 2026-04-30 18:21 | 23.33091 | 49.52650 | 38955 ft | 526 kts | 95° |
| 2026-04-30 18:22 | 23.32715 | 49.60599 | 38935 ft | 526 kts | 95° |
| 2026-04-30 18:22 | 23.32145 | 49.72510 | 38933 ft | 526 kts | 95° |
| 2026-04-30 18:23 | 23.31759 | 49.80455 | 38942 ft | 526 kts | 95° |
| 2026-04-30 18:23 | 23.31373 | 49.88396 | 38929 ft | 527 kts | 95° |
| 2026-04-30 18:24 | 23.30778 | 50.00353 | 38937 ft | 527 kts | 95° |
| 2026-04-30 18:25 | 23.30381 | 50.08274 | 38933 ft | 524 kts | 95° |
| 2026-04-30 18:25 | 23.29780 | 50.20148 | 38928 ft | 524 kts | 95° |
| 2026-04-30 18:26 | 23.29162 | 50.32008 | 38929 ft | 523 kts | 96° |
| 2026-04-30 18:27 | 23.28578 | 50.43060 | 38930 ft | 522 kts | 95° |
| 2026-04-30 18:28 | 23.28024 | 50.53608 | 38926 ft | 522 kts | 95° |
| 2026-04-30 18:28 | 23.27385 | 50.65401 | 38928 ft | 521 kts | 96° |
| 2026-04-30 18:29 | 23.26529 | 50.81116 | 38918 ft | 520 kts | 96° |
| 2026-04-30 18:30 | 23.25653 | 50.96786 | 38923 ft | 519 kts | 96° |
| 2026-04-30 18:31 | 23.24987 | 51.08509 | 38925 ft | 518 kts | 96° |
| 2026-04-30 18:32 | 23.24317 | 51.20241 | 38920 ft | 518 kts | 96° |
| 2026-04-30 18:33 | 23.23629 | 51.31951 | 38925 ft | 517 kts | 96° |
| 2026-04-30 18:33 | 23.22934 | 51.43654 | 38891 ft | 516 kts | 96° |
| 2026-04-30 18:34 | 23.22018 | 51.55320 | 38885 ft | 516 kts | 97° |
| 2026-04-30 18:35 | 23.21353 | 51.63079 | 38898 ft | 516 kts | 97° |
| 2026-04-30 18:35 | 23.20686 | 51.70846 | 38883 ft | 516 kts | 97° |
| 2026-04-30 18:36 | 23.19689 | 51.82486 | 38891 ft | 516 kts | 97° |
| 2026-04-30 18:37 | 23.18685 | 51.94133 | 38876 ft | 516 kts | 98° |
| 2026-04-30 18:37 | 23.18005 | 52.01895 | 38889 ft | 516 kts | 98° |
| 2026-04-30 18:38 | 23.17324 | 52.09643 | 38879 ft | 515 kts | 98° |
| 2026-04-30 18:38 | 23.16641 | 52.17385 | 38878 ft | 515 kts | 98° |
| 2026-04-30 18:39 | 23.15955 | 52.25134 | 38889 ft | 515 kts | 98° |
| 2026-04-30 18:39 | 23.15266 | 52.32874 | 38876 ft | 515 kts | 98° |
| 2026-04-30 18:40 | 23.15656 | 52.40654 | 38891 ft | 519 kts | 83° |
| 2026-04-30 18:40 | 23.17126 | 52.48346 | 38876 ft | 520 kts | 79° |
| 2026-04-30 18:41 | 23.18469 | 52.56079 | 38858 ft | 520 kts | 82° |
| 2026-04-30 18:41 | 23.19567 | 52.63834 | 38859 ft | 519 kts | 84° |
| 2026-04-30 18:42 | 23.20552 | 52.71613 | 38866 ft | 520 kts | 84° |
| 2026-04-30 18:42 | 23.22010 | 52.83305 | 38854 ft | 520 kts | 84° |
| 2026-04-30 18:45 | 23.27253 | 53.26135 | 38856 ft | 521 kts | 84° |
| 2026-04-30 18:46 | 23.28196 | 53.33952 | 38861 ft | 521 kts | 84° |
| 2026-04-30 18:46 | 23.29133 | 53.41758 | 38849 ft | 521 kts | 84° |
| 2026-04-30 18:47 | 23.30072 | 53.49577 | 38860 ft | 521 kts | 84° |
| 2026-04-30 18:47 | 23.31007 | 53.57404 | 38855 ft | 525 kts | 84° |
| 2026-04-30 18:48 | 23.31942 | 53.65310 | 38848 ft | 528 kts | 84° |
| 2026-04-30 18:48 | 23.32874 | 53.73220 | 38858 ft | 528 kts | 84° |
| 2026-04-30 18:49 | 23.33807 | 53.81152 | 38855 ft | 528 kts | 84° |
| 2026-04-30 18:49 | 23.34737 | 53.89078 | 38846 ft | 528 kts | 84° |
| 2026-04-30 18:50 | 23.35668 | 53.97009 | 38859 ft | 528 kts | 84° |
| 2026-04-30 18:50 | 23.36591 | 54.04943 | 38849 ft | 529 kts | 85° |
| 2026-04-30 18:51 | 23.37351 | 54.11541 | 38845 ft | 529 kts | 85° |
| 2026-04-30 18:51 | 23.38418 | 54.20833 | 38858 ft | 529 kts | 85° |
| 2026-04-30 18:52 | 23.39328 | 54.28777 | 38847 ft | 529 kts | 85° |
| 2026-04-30 18:52 | 23.40235 | 54.36727 | 38850 ft | 529 kts | 85° |
| 2026-04-30 18:53 | 23.41138 | 54.44676 | 38854 ft | 529 kts | 85° |
| 2026-04-30 18:53 | 23.42040 | 54.52627 | 38843 ft | 529 kts | 85° |
| 2026-04-30 18:54 | 23.42934 | 54.60571 | 38847 ft | 529 kts | 85° |
| 2026-04-30 18:54 | 23.43827 | 54.68536 | 38861 ft | 530 kts | 85° |
| 2026-04-30 18:55 | 23.44722 | 54.76501 | 38877 ft | 530 kts | 85° |
| 2026-04-30 18:55 | 23.45614 | 54.84458 | 38125 ft | 528 kts | 85° |
| 2026-04-30 18:55 | 23.46052 | 54.88368 | 37526 ft | 525 kts | 85° |
| 2026-04-30 18:56 | 23.46928 | 54.96212 | 36316 ft | 518 kts | 84° |
| 2026-04-30 18:56 | 23.47364 | 55.00142 | 35720 ft | 514 kts | 84° |
| 2026-04-30 18:56 | 23.47783 | 55.03943 | 35147 ft | 511 kts | 84° |
| 2026-04-30 18:57 | 23.48625 | 55.11598 | 33997 ft | 509 kts | 84° |
| 2026-04-30 18:57 | 23.49047 | 55.15447 | 33424 ft | 514 kts | 84° |
| 2026-04-30 18:57 | 23.49469 | 55.19306 | 32840 ft | 512 kts | 84° |
| 2026-04-30 18:58 | 23.50304 | 55.26948 | 31684 ft | 503 kts | 84° |
| 2026-04-30 18:58 | 23.50919 | 55.30690 | 30950 ft | 502 kts | 75° |
| 2026-04-30 18:58 | 23.52146 | 55.34231 | 30199 ft | 499 kts | 63° |
| 2026-04-30 18:59 | 23.56280 | 55.40144 | 29023 ft | 486 kts | 39° |
| 2026-04-30 19:00 | 23.65274 | 55.44637 | 27484 ft | 469 kts | 3° |
| 2026-04-30 19:00 | 23.68500 | 55.44917 | 26996 ft | 462 kts | 359° |
| 2026-04-30 19:00 | 23.74853 | 55.45812 | 25944 ft | 458 kts | 7° |
| 2026-04-30 19:01 | 23.80989 | 55.47326 | 24854 ft | 452 kts | 9° |
| 2026-04-30 19:01 | 23.84021 | 55.48166 | 24320 ft | 448 kts | 10° |
| 2026-04-30 19:02 | 23.90015 | 55.49752 | 23278 ft | 439 kts | 9° |
| 2026-04-30 19:02 | 23.95893 | 55.51362 | 22281 ft | 433 kts | 12° |
| 2026-04-30 19:03 | 24.01652 | 55.53207 | 21287 ft | 429 kts | 12° |
| 2026-04-30 19:03 | 24.07379 | 55.54819 | 20396 ft | 417 kts | 4° |
| 2026-04-30 19:04 | 24.12868 | 55.54154 | 20009 ft | 394 kts | 331° |
| 2026-04-30 19:04 | 24.16990 | 55.50367 | 19111 ft | 385 kts | 303° |
| 2026-04-30 19:05 | 24.18998 | 55.45117 | 18080 ft | 370 kts | 276° |
| 2026-04-30 19:05 | 24.19333 | 55.39528 | 16730 ft | 369 kts | 272° |
| 2026-04-30 19:06 | 24.19723 | 55.33903 | 15230 ft | 371 kts | 272° |
| 2026-04-30 19:06 | 24.19915 | 55.31089 | 14467 ft | 370 kts | 272° |
| 2026-04-30 19:06 | 24.20284 | 55.25547 | 12953 ft | 358 kts | 272° |
| 2026-04-30 19:07 | 24.20636 | 55.20212 | 11469 ft | 343 kts | 272° |
| 2026-04-30 19:07 | 24.20805 | 55.17631 | 10726 ft | 336 kts | 272° |
| 2026-04-30 19:08 | 24.21131 | 55.12651 | 9501 ft | 318 kts | 273° |
| 2026-04-30 19:08 | 24.21438 | 55.07891 | 8001 ft | 312 kts | 274° |
| 2026-04-30 19:08 | 24.21593 | 55.05496 | 7238 ft | 310 kts | 274° |
| 2026-04-30 19:09 | 24.21842 | 55.01601 | 5998 ft | 306 kts | 274° |
| 2026-04-30 19:09 | 24.22048 | 54.98750 | 5095 ft | 303 kts | 277° |
| 2026-04-30 19:09 | 24.22564 | 54.96532 | 4370 ft | 299 kts | 292° |
| 2026-04-30 19:10 | 24.24921 | 54.93010 | 3466 ft | 276 kts | 315° |
| 2026-04-30 19:10 | 24.27605 | 54.90178 | 2768 ft | 262 kts | 316° |
| 2026-04-30 19:11 | 24.28724 | 54.88897 | 2467 ft | 262 kts | 314° |
| 2026-04-30 19:11 | 24.30945 | 54.85910 | 2050 ft | 237 kts | 308° |
| 2026-04-30 19:11 | 24.31872 | 54.84497 | 2039 ft | 221 kts | 307° |
| 2026-04-30 19:12 | 24.32747 | 54.83165 | 2035 ft | 209 kts | 307° |
| 2026-04-30 19:12 | 24.33317 | 54.82327 | 2058 ft | 197 kts | 308° |
| 2026-04-30 19:12 | 24.34144 | 54.81174 | 2040 ft | 192 kts | 310° |
| 2026-04-30 19:13 | 24.35817 | 54.78939 | 2012 ft | 188 kts | 310° |
| 2026-04-30 19:13 | 24.37374 | 54.76696 | 1998 ft | 178 kts | 308° |
| 2026-04-30 19:13 | 24.38084 | 54.75655 | 1996 ft | 166 kts | 309° |
| 2026-04-30 19:14 | 24.38781 | 54.74677 | 1848 ft | 155 kts | 310° |
| 2026-04-30 19:14 | 24.39412 | 54.73830 | 1660 ft | 151 kts | 311° |
| 2026-04-30 19:14 | 24.40083 | 54.72917 | 1442 ft | 149 kts | 309° |
| 2026-04-30 19:14 | 24.40711 | 54.72023 | 1254 ft | 148 kts | 307° |
| 2026-04-30 19:15 | 24.41328 | 54.71118 | 1061 ft | 147 kts | 307° |
| 2026-04-30 19:15 | 24.42579 | 54.69348 | 671 ft | 146 kts | 308° |
| 2026-04-30 19:15 | 24.43206 | 54.68472 | 471 ft | 146 kts | 308° |
| 2026-04-30 19:16 | 24.43831 | 54.67599 | 269 ft | 145 kts | 308° |
| 2026-04-30 19:16 | 24.44446 | 54.66733 | 114 ft | 139 kts | 308° |
| 2026-04-30 19:16 | 24.45278 | 54.65562 | 101 ft | 43 kts | 308° |
| 2026-04-30 19:17 | 24.45391 | 54.65356 | 101 ft | 30 kts | 289° |
| 2026-04-30 19:17 | 24.45447 | 54.65037 | 101 ft | 18 kts | 285° |
| 2026-04-30 19:17 | 24.45485 | 54.64945 | 101 ft | 10 kts | 263° |
| 2026-04-30 19:18 | 24.45370 | 54.64965 | 101 ft | 19 kts | 128° |
| 2026-04-30 19:18 | 24.45263 | 54.65117 | 101 ft | 19 kts | 128° |
| 2026-04-30 19:18 | 24.45206 | 54.65194 | 101 ft | 13 kts | 129° |
| 2026-04-30 19:19 | 24.45109 | 54.65195 | 101 ft | 18 kts | 212° |
| 2026-04-30 19:19 | 24.45022 | 54.65121 | 101 ft | 12 kts | 217° |
| 2026-04-30 19:19 | 24.44859 | 54.64983 | 101 ft | 19 kts | 218° |
| 2026-04-30 19:20 | 24.44745 | 54.64886 | 101 ft | 22 kts | 218° |
| 2026-04-30 19:20 | 24.44653 | 54.64808 | 101 ft | 16 kts | 218° |
| 2026-04-30 19:20 | 24.44639 | 54.64644 | 101 ft | 14 kts | 309° |
| 2026-04-30 19:21 | 24.44698 | 54.64573 | 101 ft | 14 kts | 318° |
| 2026-04-30 19:21 | 24.44799 | 54.64500 | 101 ft | 4 kts | 280° |
| 2026-04-30 19:22 | 24.44792 | 54.64440 | 101 ft | 3 kts | 255° |
| 2026-04-30 19:22 | 24.44787 | 54.64418 | 101 ft | 0 kts | 255° |